createdAt,value
2022-08-17T00:05:00.817Z,8.80
2022-08-17T00:10:04.284Z,9.68
2022-08-17T00:15:10.510Z,7.15
2022-08-17T00:20:16.206Z,7.13
2022-08-17T00:25:22.100Z,8.10
2022-08-17T00:30:25.744Z,9.05
2022-08-17T00:35:30.606Z,9.77
2022-08-17T00:40:40.592Z,9.27
2022-08-17T00:45:49.102Z,9.98
2022-08-17T00:50:59.432Z,10.23
2022-08-17T00:56:06.065Z,9.27
2022-08-17T01:01:11.522Z,9.32
2022-08-17T01:06:16.465Z,9.93
2022-08-17T01:11:20.971Z,8.52
2022-08-17T01:16:26.804Z,8.82
2022-08-17T01:21:39.479Z,8.55
2022-08-17T01:26:45.360Z,9.50
2022-08-17T01:31:53.680Z,9.35
2022-08-17T01:36:57.291Z,8.20
2022-08-17T01:42:07.150Z,9.60
2022-08-17T01:47:10.798Z,9.63
2022-08-17T01:52:15.428Z,9.07
2022-08-17T01:57:20.149Z,8.38
2022-08-17T02:02:31.412Z,8.57
2022-08-17T02:07:59.442Z,8.63
2022-08-17T02:13:02.157Z,9.52
2022-08-17T02:18:07.401Z,8.30
2022-08-17T02:23:12.984Z,9.02
2022-08-17T02:28:18.814Z,10.25
2022-08-17T02:33:22.266Z,9.85
2022-08-17T02:38:25.896Z,10.07
2022-08-17T02:43:30.787Z,10.50
2022-08-17T02:48:34.282Z,10.00
2022-08-17T02:53:37.644Z,10.25
2022-08-17T02:58:42.368Z,10.75
2022-08-17T03:03:46.016Z,10.20
2022-08-17T03:08:49.788Z,9.40
2022-08-17T03:13:54.968Z,8.23
2022-08-17T03:18:58.792Z,10.10
2022-08-17T03:24:02.160Z,10.50
2022-08-17T03:29:18.910Z,8.80
2022-08-17T03:34:24.371Z,9.77
2022-08-17T03:39:27.738Z,8.77
2022-08-17T03:44:33.031Z,9.80
2022-08-17T03:49:56.341Z,10.93
2022-08-17T03:55:22.843Z,10.68
2022-08-17T04:00:45.458Z,10.38
2022-08-17T04:05:48.810Z,9.63
2022-08-17T04:10:52.221Z,9.63
2022-08-17T04:15:57.573Z,10.52
2022-08-17T04:21:01.069Z,9.63
2022-08-17T04:26:04.797Z,9.73
2022-08-17T04:31:10.199Z,10.85
2022-08-17T04:36:16.415Z,10.82
2022-08-17T04:41:37.513Z,9.57
2022-08-17T04:46:42.573Z,10.40
2022-08-17T04:51:54.510Z,10.23
2022-08-17T04:56:59.733Z,11.18
2022-08-17T05:02:04.450Z,10.70
2022-08-17T05:07:07.875Z,10.85
2022-08-17T05:12:11.252Z,11.52
2022-08-17T05:17:16.409Z,11.32
2022-08-17T05:22:19.921Z,11.70
2022-08-17T05:27:23.644Z,10.52
2022-08-17T05:32:39.362Z,10.32
2022-08-17T05:37:43.759Z,9.75
2022-08-17T05:42:47.737Z,8.88
2022-08-17T05:47:52.592Z,9.13
2022-08-17T05:53:03.920Z,9.75
2022-08-17T05:58:19.500Z,8.83
2022-08-17T06:03:48.991Z,8.05
2022-08-17T06:08:57.761Z,8.43
2022-08-17T06:14:20.068Z,8.20
2022-08-17T06:19:32.534Z,9.27
2022-08-17T06:24:40.130Z,7.90
2022-08-17T06:29:51.805Z,8.13
2022-08-17T06:34:57.457Z,8.02
2022-08-17T06:40:15.599Z,8.52
2022-08-17T06:45:22.703Z,7.95
2022-08-17T06:50:38.057Z,8.00
2022-08-17T06:55:46.783Z,7.45
2022-08-17T07:00:58.496Z,8.65
2022-08-17T07:06:12.133Z,8.07
2022-08-17T07:11:21.163Z,7.68
2022-08-17T07:16:31.681Z,7.97
2022-08-17T07:21:46.098Z,8.73
2022-08-17T07:27:04.044Z,8.52
2022-08-17T07:32:09.241Z,8.35
2022-08-17T07:37:19.916Z,8.75
2022-08-17T07:42:23.994Z,8.02
2022-08-17T07:47:53.219Z,8.65
2022-08-17T07:52:59.256Z,7.50
2022-08-17T07:58:03.674Z,7.57
2022-08-17T08:03:23.716Z,7.40
2022-08-17T08:08:38.559Z,7.40
2022-08-17T08:13:45.806Z,6.85
2022-08-17T08:18:55.382Z,6.72
2022-08-17T08:24:17.039Z,6.88
2022-08-17T08:29:28.810Z,8.75
2022-08-17T08:35:02.703Z,6.40
2022-08-17T08:40:21.397Z,7.57
2022-08-17T08:45:30.615Z,6.88
2022-08-17T08:50:42.962Z,6.70
2022-08-17T08:55:58.696Z,7.30
2022-08-17T09:01:08.836Z,6.90
2022-08-17T09:06:39.735Z,6.90
2022-08-17T09:12:02.140Z,7.90
2022-08-17T09:17:12.986Z,8.07
2022-08-17T09:22:31.636Z,7.53
2022-08-17T09:27:49.414Z,7.82
2022-08-17T09:32:57.916Z,7.40
2022-08-17T09:38:06.471Z,6.63
2022-08-17T09:43:24.985Z,6.68
2022-08-17T09:48:33.366Z,6.68
2022-08-17T09:53:38.691Z,5.80
2022-08-17T09:58:57.511Z,6.53
2022-08-17T10:04:24.847Z,6.53
2022-08-17T10:09:43.153Z,6.20
2022-08-17T10:15:08.170Z,5.68
2022-08-17T10:20:17.957Z,5.50
2022-08-17T10:25:54.094Z,5.32
2022-08-17T10:31:33.237Z,6.20
2022-08-17T10:36:46.359Z,5.70
2022-08-17T10:41:54.112Z,5.90
2022-08-17T10:47:08.530Z,5.82
2022-08-17T10:52:48.784Z,5.80
2022-08-17T10:57:54.921Z,5.75
2022-08-17T11:03:00.775Z,5.75
2022-08-17T11:08:37.780Z,5.97
2022-08-17T11:13:52.329Z,6.57
2022-08-17T11:19:23.666Z,5.40
2022-08-17T11:24:34.881Z,6.03
2022-08-17T11:29:52.651Z,6.07
2022-08-17T11:35:12.058Z,5.57
2022-08-17T11:40:34.591Z,5.38
2022-08-17T11:45:53.597Z,4.85
2022-08-17T11:51:24.262Z,5.05
2022-08-17T11:56:37.480Z,6.20
2022-08-17T12:01:55.860Z,4.95
2022-08-17T12:07:10.201Z,4.88
2022-08-17T12:12:17.639Z,4.82
2022-08-17T12:17:40.118Z,5.32
2022-08-17T12:22:56.428Z,4.75
2022-08-17T12:28:06.738Z,5.80
2022-08-17T12:33:25.350Z,5.13
2022-08-17T12:43:38.982Z,5.00
2022-08-17T12:48:55.087Z,4.93
2022-08-17T12:54:05.129Z,4.93
2022-08-17T12:59:12.028Z,4.88
2022-08-17T13:04:17.580Z,4.82
2022-08-17T13:09:36.038Z,4.57
2022-08-17T13:14:47.238Z,4.60
2022-08-17T13:19:52.645Z,4.45
2022-08-17T13:25:03.931Z,4.90
2022-08-17T13:30:13.042Z,4.43
2022-08-17T13:35:44.267Z,4.50
2022-08-17T13:40:55.294Z,5.10
2022-08-17T13:46:10.491Z,4.63
2022-08-17T13:51:18.654Z,4.45
2022-08-17T13:56:39.486Z,4.32
2022-08-17T14:01:51.059Z,4.90
2022-08-17T14:07:00.564Z,4.65
2022-08-17T14:12:07.623Z,5.03
2022-08-17T14:17:11.713Z,5.10
2022-08-17T14:22:19.921Z,4.30
2022-08-17T14:27:27.980Z,4.10
2022-08-17T14:32:33.342Z,4.30
2022-08-17T14:37:36.727Z,4.15
2022-08-17T14:42:46.047Z,4.13
2022-08-17T14:52:52.774Z,3.97
2022-08-17T14:57:57.581Z,4.00
2022-08-17T15:03:02.373Z,3.90
2022-08-17T15:08:06.833Z,4.07
2022-08-17T15:13:23.028Z,4.10
2022-08-17T15:18:26.675Z,4.07
2022-08-17T15:23:29.983Z,4.25
2022-08-17T15:28:34.725Z,4.57
2022-08-17T15:33:38.347Z,3.88
2022-08-17T15:38:41.980Z,3.50
2022-08-17T15:43:50.948Z,3.92
2022-08-17T15:48:59.624Z,3.75
2022-08-17T15:54:22.438Z,3.83
2022-08-17T15:59:30.326Z,3.90
2022-08-17T16:04:33.751Z,3.75
2022-08-17T16:09:38.443Z,3.55
2022-08-17T16:14:43.712Z,3.58
2022-08-17T16:19:47.420Z,4.25
2022-08-17T16:24:57.483Z,3.92
2022-08-17T16:30:02.787Z,3.58
2022-08-17T16:35:10.677Z,3.38
2022-08-17T16:40:15.656Z,4.30
2022-08-17T16:45:22.319Z,3.60
2022-08-17T16:50:26.298Z,4.05
2022-08-17T16:55:29.720Z,3.65
2022-08-17T17:00:34.943Z,3.67
2022-08-17T17:05:57.736Z,3.95
2022-08-17T17:11:11.532Z,4.03
2022-08-17T17:16:21.629Z,4.32
2022-08-17T17:21:33.546Z,3.85
2022-08-17T17:26:57.349Z,3.40
2022-08-17T17:32:14.032Z,2.97
2022-08-17T17:37:27.501Z,3.83
2022-08-17T17:42:33.116Z,4.45
2022-08-17T17:47:38.390Z,5.28
2022-08-17T17:52:50.537Z,8.45
2022-08-17T17:58:03.755Z,9.70
2022-08-17T18:03:24.200Z,9.15
2022-08-17T18:08:42.474Z,8.68
2022-08-17T18:14:03.843Z,8.35
2022-08-17T18:19:13.432Z,9.38
2022-08-17T18:24:31.200Z,6.60
2022-08-17T18:29:42.332Z,6.57
2022-08-17T18:34:49.738Z,6.55
2022-08-17T18:39:53.396Z,7.03
2022-08-17T18:44:57.340Z,6.68
2022-08-17T18:50:22.085Z,6.40
2022-08-17T18:55:29.405Z,6.65
2022-08-17T19:00:37.194Z,6.20
2022-08-17T19:05:45.274Z,6.85
2022-08-17T19:10:51.687Z,6.43
2022-08-17T19:16:14.443Z,5.97
2022-08-17T19:21:24.262Z,6.07
2022-08-17T19:26:53.977Z,6.65
2022-08-17T19:31:58.718Z,6.60
2022-08-17T19:37:08.871Z,7.53
2022-08-17T19:42:27.899Z,6.65
2022-08-17T19:47:55.394Z,7.07
2022-08-17T19:53:08.459Z,7.47
2022-08-17T19:58:21.045Z,7.07
2022-08-17T20:03:30.654Z,7.60
2022-08-17T20:08:40.191Z,7.30
2022-08-17T20:13:47.458Z,6.95
2022-08-17T20:18:59.217Z,7.25
2022-08-17T20:24:22.612Z,7.53
2022-08-17T20:29:39.824Z,7.40
2022-08-17T20:34:47.575Z,7.15
2022-08-17T20:45:59.814Z,8.43
2022-08-17T20:51:18.565Z,9.43
2022-08-17T20:56:57.344Z,11.48
2022-08-17T21:02:18.377Z,8.93
2022-08-17T21:07:33.037Z,9.48
2022-08-17T21:12:51.606Z,9.23
2022-08-17T21:18:06.574Z,9.45
2022-08-17T21:23:36.069Z,8.13
2022-08-17T21:28:59.983Z,9.30
2022-08-17T21:34:30.808Z,8.07
2022-08-17T21:39:41.767Z,8.30
2022-08-17T21:44:49.870Z,8.93
2022-08-17T21:49:53.880Z,11.75
2022-08-17T21:55:02.455Z,9.10
2022-08-17T22:00:15.809Z,9.63
2022-08-17T22:05:30.124Z,8.50
2022-08-17T22:10:41.265Z,8.88
2022-08-17T22:15:46.991Z,9.02
2022-08-17T22:20:53.291Z,10.48
2022-08-17T22:26:05.224Z,9.32
2022-08-17T22:31:15.727Z,9.88
2022-08-17T22:36:26.381Z,9.23
2022-08-17T22:41:44.531Z,9.93
2022-08-17T22:46:56.371Z,9.05
2022-08-17T22:57:32.727Z,9.55
2022-08-17T23:02:53.011Z,9.82
2022-08-17T23:07:59.535Z,10.07
2022-08-17T23:13:04.753Z,9.95
2022-08-17T23:18:08.549Z,8.70
2022-08-17T23:23:14.721Z,8.45
2022-08-17T23:28:19.818Z,8.82
2022-08-17T23:33:30.972Z,9.13
2022-08-17T23:38:34.300Z,8.83
2022-08-17T23:48:57.108Z,11.55
2022-08-17T23:54:08.334Z,10.75
